Time;durP1;ratioP1;P1;durP2;ratioP2;P2;SDS_P1;SDS_P2;PMS_P1;PMS_P2;Temp;Humidity;BMP_temperature;BMP_pressure;BME280_temperature;BME280_humidity;BME280_pressure;Samples;Min_cycle;Max_cycle;Signal;HPM_P1;HPM_P2
2022/04/18 00:00:00;;;;;;;5.53;3.50;;;;;;;;;;5053511;28;20020;-76
2022/04/18 00:02:27;;;;;;;4.70;2.80;;;;;;;;;;5053403;28;20041;-75
2022/04/18 00:04:53;;;;;;;3.92;2.85;;;;;;;;;;5053981;28;20025;-74
2022/04/18 00:07:19;;;;;;;3.53;2.55;;;;;;;;;;5053168;28;20067;-76
2022/04/18 00:09:45;;;;;;;6.00;3.30;;;;;;;;;;5053356;28;20025;-76
2022/04/18 00:12:13;;;;;;;4.43;3.00;;;;;;;;;;5060529;28;20025;-75
2022/04/18 00:14:42;;;;;;;5.07;2.90;;;;;;;;;;5073573;28;20066;-76
2022/04/18 00:17:09;;;;;;;3.83;2.90;;;;;;;;;;5062831;28;20021;-75
2022/04/18 00:19:36;;;;;;;5.95;2.80;;;;;;;;;;5051344;28;20025;-75
2022/04/18 00:22:02;;;;;;;5.20;2.88;;;;;;;;;;5052971;28;20040;-74
2022/04/18 00:24:28;;;;;;;3.35;2.50;;;;;;;;;;5052913;28;20378;-76
2022/04/18 00:26:54;;;;;;;4.60;2.90;;;;;;;;;;5053105;28;20542;-75
2022/04/18 00:29:20;;;;;;;3.28;2.63;;;;;;;;;;5052738;28;20374;-75
2022/04/18 00:31:46;;;;;;;4.15;2.72;;;;;;;;;;5042432;28;20521;-73
2022/04/18 00:34:14;;;;;;;5.38;3.00;;;;;;;;;;5053030;28;20595;-74
2022/04/18 00:36:40;;;;;;;5.70;2.60;;;;;;;;;;5051295;28;20486;-76
2022/04/18 00:39:06;;;;;;;4.60;2.90;;;;;;;;;;5051951;28;20568;-76
2022/04/18 00:41:32;;;;;;;4.35;2.80;;;;;;;;;;5052455;28;20032;-74
2022/04/18 00:43:58;;;;;;;3.78;2.63;;;;;;;;;;5052734;28;20082;-75
2022/04/18 00:46:24;;;;;;;4.30;2.67;;;;;;;;;;5052929;28;20110;-75
2022/04/18 00:48:50;;;;;;;5.30;2.90;;;;;;;;;;5052905;28;20032;-75
2022/04/18 00:51:21;;;;;;;3.72;2.80;;;;;;;;;;5052411;28;20029;-76
2022/04/18 00:53:47;;;;;;;3.58;2.70;;;;;;;;;;5050539;28;20049;-75
2022/04/18 00:56:14;;;;;;;3.95;2.75;;;;;;;;;;5052361;28;20056;-76
2022/04/18 00:58:41;;;;;;;5.47;3.20;;;;;;;;;;5052894;28;20112;-75
2022/04/18 01:01:08;;;;;;;5.05;2.80;;;;;;;;;;5052194;28;20041;-76
2022/04/18 01:03:36;;;;;;;3.65;2.50;;;;;;;;;;5052385;28;20413;-74
2022/04/18 01:06:03;;;;;;;4.18;2.67;;;;;;;;;;5052518;28;20036;-75
2022/04/18 01:08:29;;;;;;;7.45;2.80;;;;;;;;;;5052380;28;20032;-75
2022/04/18 01:10:56;;;;;;;2.92;2.45;;;;;;;;;;5052491;28;20033;-75
2022/04/18 01:13:22;;;;;;;5.10;2.65;;;;;;;;;;5052102;28;20035;-74
2022/04/18 01:15:52;;;;;;;4.35;2.85;;;;;;;;;;5050799;28;20032;-76
2022/04/18 01:18:18;;;;;;;4.80;2.92;;;;;;;;;;5052253;28;20063;-76
2022/04/18 01:20:45;;;;;;;5.78;3.70;;;;;;;;;;5052289;28;20036;-76
2022/04/18 01:23:11;;;;;;;3.28;2.72;;;;;;;;;;5050560;28;20036;-76
2022/04/18 01:31:06;;;;;;;5.00;2.70;;;;;;;;;;5050514;28;20056;-76
2022/04/18 01:33:32;;;;;;;3.83;2.92;;;;;;;;;;5051526;28;20024;-75
2022/04/18 01:35:58;;;;;;;4.05;2.67;;;;;;;;;;5051830;28;20030;-75
2022/04/18 01:38:25;;;;;;;4.05;2.90;;;;;;;;;;5054819;28;20045;-76
2022/04/18 01:40:51;;;;;;;4.95;2.78;;;;;;;;;;5056332;28;20025;-75
2022/04/18 01:43:17;;;;;;;3.90;3.10;;;;;;;;;;5038339;28;20061;-76
2022/04/18 01:45:43;;;;;;;4.15;3.00;;;;;;;;;;5056605;28;20021;-76
2022/04/18 01:48:09;;;;;;;6.30;3.33;;;;;;;;;;5054566;28;20025;-75
2022/04/18 01:50:36;;;;;;;6.45;3.30;;;;;;;;;;5056208;28;20059;-74
2022/04/18 01:53:02;;;;;;;5.30;3.20;;;;;;;;;;5054660;28;20017;-76
2022/04/18 01:55:28;;;;;;;5.22;3.20;;;;;;;;;;5056273;28;20032;-75
2022/04/18 01:57:54;;;;;;;5.78;3.10;;;;;;;;;;5055456;28;20037;-75
2022/04/18 02:00:20;;;;;;;4.90;3.30;;;;;;;;;;5056120;28;20092;-76
2022/04/18 02:02:46;;;;;;;4.63;2.53;;;;;;;;;;5055614;28;20039;-76
2022/04/18 02:05:12;;;;;;;5.78;2.83;;;;;;;;;;5055853;28;20057;-76
2022/04/18 02:07:38;;;;;;;4.53;2.80;;;;;;;;;;5054770;28;20486;-76
2022/04/18 02:10:04;;;;;;;4.20;2.85;;;;;;;;;;5055032;28;20478;-76
2022/04/18 02:12:32;;;;;;;3.22;2.60;;;;;;;;;;5055405;28;20033;-74
2022/04/18 02:14:58;;;;;;;5.13;3.00;;;;;;;;;;5055366;28;20452;-75
2022/04/18 02:17:24;;;;;;;5.68;3.17;;;;;;;;;;5055911;28;20029;-71
2022/04/18 02:19:52;;;;;;;4.85;2.88;;;;;;;;;;5055008;28;20028;-71
2022/04/18 02:22:18;;;;;;;7.70;2.95;;;;;;;;;;5053582;28;20032;-72
2022/04/18 02:24:44;;;;;;;6.80;3.35;;;;;;;;;;5054575;28;20033;-75
2022/04/18 02:27:10;;;;;;;5.47;3.20;;;;;;;;;;5055389;28;20031;-75
2022/04/18 02:29:36;;;;;;;4.50;2.97;;;;;;;;;;5054722;28;20033;-75
2022/04/18 02:34:47;;;;;;;5.20;2.90;;;;;;;;;;5054880;28;20040;-76
2022/04/18 02:37:13;;;;;;;4.13;3.03;;;;;;;;;;5055264;28;20025;-75
2022/04/18 02:39:39;;;;;;;6.03;3.10;;;;;;;;;;5055410;28;20071;-76
2022/04/18 02:42:06;;;;;;;4.45;3.38;;;;;;;;;;5054939;28;20093;-75
2022/04/18 02:44:32;;;;;;;5.30;3.15;;;;;;;;;;5054159;28;20027;-76
2022/04/18 02:46:58;;;;;;;6.20;3.10;;;;;;;;;;5054854;28;20032;-73
2022/04/18 02:49:24;;;;;;;5.03;3.33;;;;;;;;;;5053538;28;20032;-75
2022/04/18 02:51:50;;;;;;;6.68;2.97;;;;;;;;;;5054685;28;20040;-75
2022/04/18 02:54:16;;;;;;;5.05;3.25;;;;;;;;;;5052588;28;20028;-76
2022/04/18 02:56:42;;;;;;;4.82;3.20;;;;;;;;;;5054489;28;20021;-76
2022/04/18 02:59:08;;;;;;;5.32;3.00;;;;;;;;;;5054690;28;20031;-75
2022/04/18 03:01:34;;;;;;;5.07;3.00;;;;;;;;;;5054431;28;20078;-76
2022/04/18 03:04:00;;;;;;;3.35;2.70;;;;;;;;;;5053930;28;20101;-75
2022/04/18 03:06:26;;;;;;;5.30;3.20;;;;;;;;;;5054202;28;20052;-75
2022/04/18 03:08:53;;;;;;;4.68;3.20;;;;;;;;;;5054775;28;20041;-75
2022/04/18 03:11:19;;;;;;;3.97;3.03;;;;;;;;;;5054940;28;20430;-75
2022/04/18 03:13:45;;;;;;;4.15;2.95;;;;;;;;;;5054330;28;20500;-75
2022/04/18 03:16:18;;;;;;;3.88;3.00;;;;;;;;;;5054602;28;20021;-75
2022/04/18 03:18:44;;;;;;;5.07;3.00;;;;;;;;;;5053129;28;20020;-73
2022/04/18 03:21:12;;;;;;;5.43;3.28;;;;;;;;;;5053998;28;20397;-75
2022/04/18 03:23:39;;;;;;;4.13;3.00;;;;;;;;;;5052663;28;20021;-75
2022/04/18 03:26:08;;;;;;;5.28;3.55;;;;;;;;;;5053666;28;20031;-76
2022/04/18 03:28:34;;;;;;;4.78;3.00;;;;;;;;;;5053870;28;20028;-76
2022/04/18 03:31:00;;;;;;;4.53;3.10;;;;;;;;;;5054490;28;20048;-76
2022/04/18 03:33:26;;;;;;;5.78;3.13;;;;;;;;;;5053981;28;20075;-75
2022/04/18 03:41:22;;;;;;;6.72;3.45;;;;;;;;;;5053374;28;20120;-76
2022/04/18 03:43:50;;;;;;;5.63;3.20;;;;;;;;;;5054209;28;20060;-76
2022/04/18 03:46:17;;;;;;;4.57;3.13;;;;;;;;;;5053601;28;20090;-76
2022/04/18 03:48:43;;;;;;;4.85;3.22;;;;;;;;;;5054286;28;20076;-71
2022/04/18 03:51:09;;;;;;;5.10;3.58;;;;;;;;;;5053408;28;20405;-75
2022/04/18 03:53:35;;;;;;;6.50;4.30;;;;;;;;;;5052863;28;20129;-75
2022/04/18 03:56:01;;;;;;;6.20;4.40;;;;;;;;;;5041395;28;20414;-75
2022/04/18 03:58:27;;;;;;;5.57;4.05;;;;;;;;;;5035654;28;20468;-76
2022/04/18 04:00:53;;;;;;;4.70;3.53;;;;;;;;;;5050770;28;20488;-75
2022/04/18 04:03:19;;;;;;;10.88;4.28;;;;;;;;;;5053610;28;20474;-74
2022/04/18 04:05:45;;;;;;;10.52;3.95;;;;;;;;;;5052834;28;20036;-75
2022/04/18 04:08:12;;;;;;;5.43;3.83;;;;;;;;;;5052395;28;20033;-75
2022/04/18 04:10:40;;;;;;;9.32;4.50;;;;;;;;;;5053319;28;20032;-76
2022/04/18 04:13:06;;;;;;;7.93;4.10;;;;;;;;;;5053833;28;20043;-73
2022/04/18 04:15:32;;;;;;;8.52;4.32;;;;;;;;;;5053380;28;20485;-75
2022/04/18 04:17:58;;;;;;;8.10;4.28;;;;;;;;;;5066081;28;20088;-75
2022/04/18 04:20:24;;;;;;;7.68;4.30;;;;;;;;;;5052943;28;20374;-74
2022/04/18 04:22:51;;;;;;;5.38;3.50;;;;;;;;;;5052293;28;20448;-76
2022/04/18 04:25:22;;;;;;;5.88;3.75;;;;;;;;;;5053165;28;20025;-73
2022/04/18 04:27:48;;;;;;;6.32;3.70;;;;;;;;;;5056719;28;20024;-75
2022/04/18 04:30:14;;;;;;;5.43;3.60;;;;;;;;;;5060970;28;20021;-78
2022/04/18 04:32:40;;;;;;;7.47;3.70;;;;;;;;;;5067552;28;20021;-75
2022/04/18 04:35:06;;;;;;;6.30;3.85;;;;;;;;;;5051163;28;20036;-75
2022/04/18 04:37:32;;;;;;;6.55;3.85;;;;;;;;;;5052928;28;20041;-78
2022/04/18 04:39:58;;;;;;;5.80;3.78;;;;;;;;;;5066684;28;20098;-78
2022/04/18 04:42:24;;;;;;;6.18;3.78;;;;;;;;;;5054283;28;20040;-78
2022/04/18 04:44:50;;;;;;;6.03;4.13;;;;;;;;;;5051815;28;20021;-71
2022/04/18 04:47:17;;;;;;;8.32;4.28;;;;;;;;;;5052943;28;20539;-69
2022/04/18 04:49:43;;;;;;;7.50;4.22;;;;;;;;;;5036277;28;20047;-73
2022/04/18 04:52:09;;;;;;;8.20;5.13;;;;;;;;;;5052750;28;20055;-72
2022/04/18 04:54:35;;;;;;;10.73;6.10;;;;;;;;;;5051781;28;20083;-73
2022/04/18 04:57:01;;;;;;;11.65;5.63;;;;;;;;;;5053362;28;20082;-71
2022/04/18 04:59:27;;;;;;;8.45;4.70;;;;;;;;;;5057595;28;20411;-68
2022/04/18 05:01:53;;;;;;;7.60;4.70;;;;;;;;;;5061436;28;20041;-71
2022/04/18 05:04:22;;;;;;;12.82;5.65;;;;;;;;;;5054478;28;20029;-73
2022/04/18 05:06:48;;;;;;;10.93;5.10;;;;;;;;;;5036402;28;20075;-76
2022/04/18 05:09:15;;;;;;;11.13;5.53;;;;;;;;;;5052494;28;20056;-75
2022/04/18 05:11:41;;;;;;;9.70;5.38;;;;;;;;;;5066613;28;20025;-76
2022/04/18 05:14:07;;;;;;;9.05;5.25;;;;;;;;;;5074901;28;20028;-74
2022/04/18 05:16:33;;;;;;;8.77;5.00;;;;;;;;;;5055518;28;20020;-74
2022/04/18 05:19:01;;;;;;;9.98;4.70;;;;;;;;;;5051920;28;20036;-69
2022/04/18 05:21:29;;;;;;;7.13;4.78;;;;;;;;;;5056689;28;20036;-74
2022/04/18 05:23:56;;;;;;;7.85;4.63;;;;;;;;;;5052306;28;20420;-76
2022/04/18 05:26:22;;;;;;;8.45;5.20;;;;;;;;;;5050582;28;20017;-75
2022/04/18 05:28:48;;;;;;;9.13;4.80;;;;;;;;;;5052349;28;20482;-71
2022/04/18 05:31:17;;;;;;;9.75;5.15;;;;;;;;;;5051801;28;20036;-75
2022/04/18 05:33:43;;;;;;;9.48;5.43;;;;;;;;;;5070306;28;20044;-74
2022/04/18 05:36:09;;;;;;;10.20;5.68;;;;;;;;;;5072185;28;20036;-74
2022/04/18 05:38:35;;;;;;;12.52;6.18;;;;;;;;;;5070068;28;20053;-83
2022/04/18 05:41:01;;;;;;;11.07;6.13;;;;;;;;;;5063993;28;20059;-74
2022/04/18 05:43:28;;;;;;;10.80;6.57;;;;;;;;;;5050821;28;20033;-72
2022/04/18 05:45:54;;;;;;;12.23;6.90;;;;;;;;;;5048153;28;20025;-74
2022/04/18 05:48:20;;;;;;;12.25;7.75;;;;;;;;;;5049903;28;20074;-75
2022/04/18 05:50:47;;;;;;;13.93;6.68;;;;;;;;;;5051674;28;20025;-73
2022/04/18 05:53:14;;;;;;;14.00;6.70;;;;;;;;;;5046361;28;20420;-77
2022/04/18 05:55:40;;;;;;;13.25;6.68;;;;;;;;;;5048357;28;20029;-90
2022/04/18 05:58:06;;;;;;;9.52;5.32;;;;;;;;;;5053689;28;20033;-73
2022/04/18 06:00:34;;;;;;;12.20;5.82;;;;;;;;;;5052580;28;20036;-90
2022/04/18 06:03:00;;;;;;;29.90;12.82;;;;;;;;;;5052553;28;20029;-78
2022/04/18 06:05:26;;;;;;;20.30;11.10;;;;;;;;;;5052416;28;20048;-90
2022/04/18 06:07:53;;;;;;;12.90;9.15;;;;;;;;;;5051760;28;20037;-79
2022/04/18 06:10:19;;;;;;;16.70;11.32;;;;;;;;;;5052043;28;20101;-82
2022/04/18 06:12:45;;;;;;;11.73;7.65;;;;;;;;;;5051899;28;20147;-77
2022/04/18 06:15:11;;;;;;;8.07;5.53;;;;;;;;;;5049240;28;20033;-85
2022/04/18 06:17:37;;;;;;;6.78;4.80;;;;;;;;;;5049343;28;20032;-74
2022/04/18 06:20:04;;;;;;;10.27;5.35;;;;;;;;;;5049024;28;20021;-85
2022/04/18 06:22:30;;;;;;;8.75;4.55;;;;;;;;;;5049070;28;20048;-82
2022/04/18 06:24:56;;;;;;;8.20;4.32;;;;;;;;;;5052684;28;20021;-90
2022/04/18 06:27:22;;;;;;;5.97;3.95;;;;;;;;;;5054263;28;20033;-74
2022/04/18 06:29:48;;;;;;;7.82;4.10;;;;;;;;;;5049135;28;20032;-76
2022/04/18 06:32:14;;;;;;;16.73;4.60;;;;;;;;;;5055894;28;20094;-77
2022/04/18 06:34:40;;;;;;;5.30;4.10;;;;;;;;;;5055440;28;20017;-78
2022/04/18 06:37:06;;;;;;;5.47;4.00;;;;;;;;;;5054694;28;20410;-84
2022/04/18 06:39:32;;;;;;;6.97;4.25;;;;;;;;;;5049880;28;20033;-76
2022/04/18 06:42:00;;;;;;;15.52;5.13;;;;;;;;;;5054495;28;20478;-76
2022/04/18 06:44:26;;;;;;;15.38;5.65;;;;;;;;;;5054964;28;20079;-75
2022/04/18 06:46:52;;;;;;;14.43;5.40;;;;;;;;;;5052701;28;20394;-76
2022/04/18 06:49:18;;;;;;;45.13;10.10;;;;;;;;;;5053765;28;20049;-77
2022/04/18 06:51:44;;;;;;;13.63;5.00;;;;;;;;;;5052467;28;20024;-75
2022/04/18 06:54:10;;;;;;;16.77;5.38;;;;;;;;;;5051407;28;20025;-78
2022/04/18 06:59:21;;;;;;;8.10;4.00;;;;;;;;;;5052332;28;20047;-74
2022/04/18 07:01:47;;;;;;;9.68;4.60;;;;;;;;;;5051685;28;20578;-75
2022/04/18 07:04:13;;;;;;;6.97;4.05;;;;;;;;;;5055560;28;20076;-73
2022/04/18 07:06:40;;;;;;;5.70;3.90;;;;;;;;;;5050393;28;20033;-75
2022/04/18 07:09:06;;;;;;;6.30;4.90;;;;;;;;;;5049528;28;20028;-76
2022/04/18 07:11:32;;;;;;;8.93;5.80;;;;;;;;;;5053737;28;20118;-76
2022/04/18 07:13:58;;;;;;;10.55;5.30;;;;;;;;;;5053362;28;20537;-75
2022/04/18 07:16:24;;;;;;;6.10;4.85;;;;;;;;;;5053900;28;20386;-79
2022/04/18 07:18:50;;;;;;;5.13;4.10;;;;;;;;;;5053250;28;20075;-79
2022/04/18 07:21:16;;;;;;;7.57;4.40;;;;;;;;;;5052865;28;20040;-76
2022/04/18 07:23:42;;;;;;;15.10;4.60;;;;;;;;;;5051640;28;20473;-77
2022/04/18 07:26:08;;;;;;;15.15;5.88;;;;;;;;;;5053958;28;20032;-70
2022/04/18 07:28:38;;;;;;;12.15;5.75;;;;;;;;;;5051461;28;20043;-75
2022/04/18 07:31:05;;;;;;;5.85;3.90;;;;;;;;;;5052928;28;20028;-74
2022/04/18 07:33:31;;;;;;;7.22;4.10;;;;;;;;;;5053449;28;20380;-75
2022/04/18 07:35:57;;;;;;;6.35;3.92;;;;;;;;;;5051799;28;20422;-75
2022/04/18 07:41:08;;;;;;;5.15;4.10;;;;;;;;;;5053897;28;20083;-74
2022/04/18 07:43:34;;;;;;;5.78;4.30;;;;;;;;;;5051352;28;20025;-73
2022/04/18 07:46:04;;;;;;;9.10;4.50;;;;;;;;;;5053985;28;20013;-75
2022/04/18 07:48:30;;;;;;;7.05;4.57;;;;;;;;;;5053218;28;20033;-78
2022/04/18 07:53:41;;;;;;;6.03;4.47;;;;;;;;;;5049362;28;20044;-74
2022/04/18 07:56:07;;;;;;;9.35;4.25;;;;;;;;;;5053689;28;20032;-73
2022/04/18 07:58:33;;;;;;;7.90;4.03;;;;;;;;;;5054730;28;20031;-75
2022/04/18 08:00:59;;;;;;;8.57;4.40;;;;;;;;;;5052864;28;20029;-75
2022/04/18 08:03:25;;;;;;;7.25;4.20;;;;;;;;;;5053088;28;20029;-73
2022/04/18 08:05:51;;;;;;;10.27;4.22;;;;;;;;;;5051920;28;20017;-76
2022/04/18 08:08:18;;;;;;;7.43;4.55;;;;;;;;;;5052657;28;20037;-73
2022/04/18 08:10:44;;;;;;;5.90;4.30;;;;;;;;;;5052905;28;20056;-78
2022/04/18 08:13:10;;;;;;;5.78;3.97;;;;;;;;;;5050663;28;20032;-73
2022/04/18 08:15:36;;;;;;;9.80;4.28;;;;;;;;;;5053450;28;20029;-75
2022/04/18 08:18:02;;;;;;;10.63;4.45;;;;;;;;;;5052429;28;20021;-70
2022/04/18 08:20:28;;;;;;;6.90;4.28;;;;;;;;;;5059854;28;20033;-77
2022/04/18 08:22:54;;;;;;;5.68;4.05;;;;;;;;;;5047721;28;20032;-74
2022/04/18 08:25:20;;;;;;;6.55;4.40;;;;;;;;;;5052564;28;20029;-76
2022/04/18 08:27:46;;;;;;;7.80;4.63;;;;;;;;;;5053372;28;20114;-71
2022/04/18 08:30:12;;;;;;;8.32;4.70;;;;;;;;;;5052504;28;20017;-72
2022/04/18 08:32:38;;;;;;;6.47;4.20;;;;;;;;;;5050767;28;20024;-79
2022/04/18 08:35:05;;;;;;;8.52;4.60;;;;;;;;;;5051621;28;20150;-76
2022/04/18 08:37:31;;;;;;;8.93;4.15;;;;;;;;;;5050707;28;20052;-74
2022/04/18 08:39:57;;;;;;;7.07;4.25;;;;;;;;;;5052667;28;20100;-69
2022/04/18 08:42:24;;;;;;;5.30;4.20;;;;;;;;;;5050309;28;20086;-75
2022/04/18 08:44:54;;;;;;;6.97;4.60;;;;;;;;;;5050878;28;20040;-76
2022/04/18 08:52:53;;;;;;;5.97;4.60;;;;;;;;;;5053075;28;20035;-73
2022/04/18 08:55:20;;;;;;;9.40;4.40;;;;;;;;;;5049889;28;20025;-75
2022/04/18 08:57:46;;;;;;;6.95;4.60;;;;;;;;;;5047754;28;20112;-69
2022/04/18 09:00:12;;;;;;;7.25;4.85;;;;;;;;;;5049592;28;20486;-76
2022/04/18 09:02:39;;;;;;;8.27;4.88;;;;;;;;;;5053108;28;20032;-71
2022/04/18 09:05:09;;;;;;;10.30;4.85;;;;;;;;;;5054271;28;20020;-78
2022/04/18 09:07:35;;;;;;;8.07;4.35;;;;;;;;;;5051864;28;20112;-72
2022/04/18 09:10:01;;;;;;;9.05;5.00;;;;;;;;;;5052791;28;20017;-75
2022/04/18 09:12:28;;;;;;;9.75;4.50;;;;;;;;;;5053482;28;20544;-74
2022/04/18 09:14:55;;;;;;;6.68;4.78;;;;;;;;;;5043094;28;20393;-71
2022/04/18 09:17:36;;;;;;;6.65;4.28;;;;;;;;;;5045193;28;20081;-74
2022/04/18 09:20:09;;;;;;;7.30;4.32;;;;;;;;;;5052033;28;20038;-74
2022/04/18 09:22:42;;;;;;;6.85;4.07;;;;;;;;;;5052599;28;20040;-73
2022/04/18 09:25:15;;;;;;;4.50;3.55;;;;;;;;;;5052565;28;20433;-73
2022/04/18 09:27:42;;;;;;;4.00;3.08;;;;;;;;;;5051815;28;20044;-70
2022/04/18 09:30:12;;;;;;;3.78;2.90;;;;;;;;;;5051992;28;20386;-73
2022/04/18 09:32:40;;;;;;;7.78;3.85;;;;;;;;;;5044527;28;20484;-75
2022/04/18 09:35:09;;;;;;;7.15;3.63;;;;;;;;;;5033852;28;20512;-76
2022/04/18 09:37:36;;;;;;;5.32;3.83;;;;;;;;;;5052220;28;20166;-71
2022/04/18 09:40:02;;;;;;;7.03;3.45;;;;;;;;;;5051930;28;20040;-74
2022/04/18 09:42:31;;;;;;;4.07;3.00;;;;;;;;;;5052090;28;20037;-70
2022/04/18 09:44:59;;;;;;;5.05;3.03;;;;;;;;;;5052412;28;20020;-76
2022/04/18 09:47:26;;;;;;;4.13;2.72;;;;;;;;;;5052236;28;20029;-75
2022/04/18 09:49:52;;;;;;;5.13;2.95;;;;;;;;;;5051743;28;20079;-71
2022/04/18 09:52:20;;;;;;;4.93;3.22;;;;;;;;;;5036095;28;20406;-73
2022/04/18 09:54:50;;;;;;;3.55;2.70;;;;;;;;;;5050019;28;20036;-77
2022/04/18 09:57:20;;;;;;;4.43;2.95;;;;;;;;;;5052445;28;20176;-77
2022/04/18 09:59:47;;;;;;;3.08;2.45;;;;;;;;;;5054111;28;20040;-76
2022/04/18 10:02:13;;;;;;;4.97;3.10;;;;;;;;;;5055011;28;20044;-70
2022/04/18 10:04:40;;;;;;;7.55;2.97;;;;;;;;;;5052163;28;20021;-77
2022/04/18 10:07:07;;;;;;;5.30;2.30;;;;;;;;;;5055749;28;20048;-75
2022/04/18 10:09:33;;;;;;;5.57;2.95;;;;;;;;;;5053468;28;20032;-71
2022/04/18 10:11:59;;;;;;;3.35;2.50;;;;;;;;;;5052467;28;20025;-85
2022/04/18 10:14:25;;;;;;;6.10;2.50;;;;;;;;;;5058634;28;20017;-75
2022/04/18 10:16:53;;;;;;;9.80;2.97;;;;;;;;;;5054937;28;20025;-72
2022/04/18 10:19:38;;;;;;;6.47;2.55;;;;;;;;;;5054342;28;20405;-80
2022/04/18 10:22:10;;;;;;;5.15;2.28;;;;;;;;;;5053304;28;20498;-76
2022/04/18 10:24:36;;;;;;;4.68;2.50;;;;;;;;;;5053600;28;20517;-76
2022/04/18 10:27:17;;;;;;;3.97;2.33;;;;;;;;;;5038580;28;20035;-75
2022/04/18 10:29:50;;;;;;;6.10;2.17;;;;;;;;;;5055384;28;20021;-74
2022/04/18 10:32:18;;;;;;;6.45;2.40;;;;;;;;;;5051150;28;20108;-73
2022/04/18 10:34:49;;;;;;;6.40;2.00;;;;;;;;;;5053676;28;20132;-86
2022/04/18 10:37:16;;;;;;;3.13;2.20;;;;;;;;;;5053142;28;20029;-84
2022/04/18 10:39:42;;;;;;;3.42;2.40;;;;;;;;;;5038664;28;20055;-77
2022/04/18 10:42:28;;;;;;;3.67;2.30;;;;;;;;;;5034642;28;20021;-75
2022/04/18 10:44:58;;;;;;;6.05;2.05;;;;;;;;;;5049247;28;20502;-73
2022/04/18 10:47:24;;;;;;;6.60;2.20;;;;;;;;;;5053305;28;20027;-71
2022/04/18 10:50:25;;;;;;;2.55;2.20;;;;;;;;;;5052117;28;20032;-78
2022/04/18 10:53:10;;;;;;;4.75;2.58;;;;;;;;;;4992753;28;20030;-72
2022/04/18 10:55:38;;;;;;;7.55;2.10;;;;;;;;;;4996676;28;20050;-70
2022/04/18 10:58:17;;;;;;;8.57;2.60;;;;;;;;;;4996760;28;20037;-73
2022/04/18 11:00:53;;;;;;;3.72;2.30;;;;;;;;;;4991381;28;20034;-72
2022/04/18 11:03:37;;;;;;;4.32;2.30;;;;;;;;;;4993320;28;20038;-77
2022/04/18 11:06:03;;;;;;;;;;;;;;;;;;4993356;28;20600;-75
2022/04/18 11:08:32;;;;;;;6.72;2.50;;;;;;;;;;4995932;28;20012;-76
2022/04/18 11:11:04;;;;;;;3.25;2.00;;;;;;;;;;4992072;28;20030;-77
2022/04/18 11:13:33;;;;;;;4.03;2.35;;;;;;;;;;4994228;28;20455;-75
2022/04/18 11:16:20;;;;;;;4.20;2.33;;;;;;;;;;4986344;28;20041;-76
2022/04/18 11:19:06;;;;;;;4.38;2.08;;;;;;;;;;4993383;28;20547;-77
2022/04/18 11:22:01;;;;;;;2.35;2.15;;;;;;;;;;4993330;28;20413;-76
2022/04/18 11:24:36;;;;;;;3.17;2.10;;;;;;;;;;4974589;28;20038;-74
2022/04/18 11:27:06;;;;;;;3.33;2.30;;;;;;;;;;5027166;28;20037;-75
2022/04/18 11:29:32;;;;;;;3.92;2.38;;;;;;;;;;5054683;28;20061;-77
2022/04/18 11:31:58;;;;;;;6.18;2.47;;;;;;;;;;5054260;28;20028;-77
2022/04/18 11:34:28;;;;;;;6.07;2.40;;;;;;;;;;5054106;28;20021;-72
2022/04/18 11:36:58;;;;;;;3.75;2.60;;;;;;;;;;5052437;28;20027;-77
2022/04/18 11:39:24;;;;;;;8.85;4.18;;;;;;;;;;5054238;28;20045;-77
2022/04/18 11:42:02;;;;;;;17.48;11.18;;;;;;;;;;5053953;28;20025;-75
2022/04/18 11:44:28;;;;;;;3.10;2.38;;;;;;;;;;5054268;28;20032;-78
2022/04/18 11:46:56;;;;;;;3.55;2.38;;;;;;;;;;5052926;28;20025;-71
2022/04/18 11:49:28;;;;;;;6.32;2.42;;;;;;;;;;5053918;28;20566;-79
2022/04/18 11:51:54;;;;;;;3.75;2.47;;;;;;;;;;5054049;28;20054;-76
2022/04/18 11:54:20;;;;;;;3.05;2.35;;;;;;;;;;5053906;28;20044;-72
2022/04/18 11:57:03;;;;;;;2.72;2.30;;;;;;;;;;5052842;28;20033;-73
2022/04/18 11:59:32;;;;;;;5.57;2.45;;;;;;;;;;5053831;28;20017;-71
2022/04/18 12:07:32;;;;;;;3.60;2.70;;;;;;;;;;5053535;28;20043;-75
2022/04/18 12:09:58;;;;;;;3.20;2.55;;;;;;;;;;5055324;28;20390;-76
2022/04/18 12:12:31;;;;;;;7.30;2.60;;;;;;;;;;5053444;28;20021;-73
2022/04/18 12:15:05;;;;;;;4.05;2.50;;;;;;;;;;5053448;28;20021;-72
2022/04/18 12:17:31;;;;;;;;;;;;;;;;;;5053815;28;20052;-77
2022/04/18 12:19:57;;;;;;;5.57;2.40;;;;;;;;;;5052239;28;20401;-73
2022/04/18 12:22:23;;;;;;;4.57;2.42;;;;;;;;;;5052931;28;20025;-73
2022/04/18 12:24:50;;;;;;;6.43;2.80;;;;;;;;;;5052838;28;20036;-76
2022/04/18 12:27:16;;;;;;;3.58;2.47;;;;;;;;;;5053100;28;20025;-76
2022/04/18 12:29:43;;;;;;;7.07;2.70;;;;;;;;;;5052614;28;20025;-76
2022/04/18 12:32:26;;;;;;;4.30;2.70;;;;;;;;;;5052934;28;20017;-76
2022/04/18 12:34:52;;;;;;;3.88;2.50;;;;;;;;;;5045553;28;20024;-76
2022/04/18 12:37:18;;;;;;;7.28;2.80;;;;;;;;;;5052616;28;20039;-75
2022/04/18 12:39:44;;;;;;;5.38;2.58;;;;;;;;;;5052575;28;20037;-72
2022/04/18 12:42:14;;;;;;;4.30;2.50;;;;;;;;;;5034611;28;20025;-77
2022/04/18 12:44:41;;;;;;;6.07;2.65;;;;;;;;;;5052683;28;20021;-75
2022/04/18 12:47:20;;;;;;;5.85;2.60;;;;;;;;;;5052862;28;20024;-74
2022/04/18 12:50:04;;;;;;;8.45;3.08;;;;;;;;;;5052793;28;20051;-73
2022/04/18 12:52:30;;;;;;;7.65;2.65;;;;;;;;;;5039682;28;20025;-74
2022/04/18 12:55:06;;;;;;;6.65;2.90;;;;;;;;;;5052388;28;20433;-72
2022/04/18 12:57:33;;;;;;;6.97;2.63;;;;;;;;;;5047190;28;20025;-74
2022/04/18 13:00:13;;;;;;;3.67;2.60;;;;;;;;;;5052784;28;20469;-73
2022/04/18 13:02:40;;;;;;;5.65;2.60;;;;;;;;;;5050537;28;20037;-76
2022/04/18 13:05:06;;;;;;;5.82;3.15;;;;;;;;;;5052246;28;20025;-76
2022/04/18 13:07:38;;;;;;;5.63;2.50;;;;;;;;;;5053988;28;20037;-71
2022/04/18 13:10:04;;;;;;;4.95;2.80;;;;;;;;;;5053732;28;20025;-76
2022/04/18 13:12:30;;;;;;;5.28;2.67;;;;;;;;;;5052227;28;20021;-76
2022/04/18 13:15:02;;;;;;;4.15;2.88;;;;;;;;;;5052506;28;20429;-70
2022/04/18 13:17:29;;;;;;;3.38;2.53;;;;;;;;;;5052844;28;20029;-75
2022/04/18 13:19:55;;;;;;;5.45;2.60;;;;;;;;;;5052761;28;20021;-75
2022/04/18 13:22:22;;;;;;;7.70;2.70;;;;;;;;;;5038525;28;20048;-76
2022/04/18 13:24:50;;;;;;;7.15;2.83;;;;;;;;;;5052766;28;20614;-76
2022/04/18 13:27:24;;;;;;;3.65;2.97;;;;;;;;;;5052088;28;20150;-72
2022/04/18 13:29:50;;;;;;;7.13;3.72;;;;;;;;;;5052534;28;20036;-75
2022/04/18 13:32:16;;;;;;;7.00;2.80;;;;;;;;;;5052477;28;20040;-76
2022/04/18 13:34:42;;;;;;;10.50;3.00;;;;;;;;;;5055480;28;20025;-74
2022/04/18 13:37:08;;;;;;;10.18;3.88;;;;;;;;;;5055717;28;20037;-76
2022/04/18 13:39:34;;;;;;;43.50;5.10;;;;;;;;;;5056498;28;20029;-76
2022/04/18 13:42:00;;;;;;;11.90;4.10;;;;;;;;;;5056217;28;20021;-74
2022/04/18 13:44:26;;;;;;;10.30;3.25;;;;;;;;;;5055440;28;20044;-72
2022/04/18 13:46:52;;;;;;;14.25;4.18;;;;;;;;;;5056213;28;20157;-75
2022/04/18 13:49:18;;;;;;;8.68;3.30;;;;;;;;;;5055879;28;20525;-71
2022/04/18 13:51:45;;;;;;;10.18;3.15;;;;;;;;;;5056353;28;20029;-76
2022/04/18 13:54:11;;;;;;;5.40;3.03;;;;;;;;;;5056111;28;20531;-77
2022/04/18 13:56:37;;;;;;;4.88;3.10;;;;;;;;;;5056209;28;20067;-69
2022/04/18 13:59:04;;;;;;;6.90;3.33;;;;;;;;;;5057390;28;20021;-76
2022/04/18 14:01:32;;;;;;;5.32;3.00;;;;;;;;;;5055882;28;20049;-73
2022/04/18 14:03:58;;;;;;;10.32;3.40;;;;;;;;;;5055689;28;20017;-73
2022/04/18 14:06:26;;;;;;;10.02;3.47;;;;;;;;;;5055664;28;20444;-74
2022/04/18 14:08:52;;;;;;;13.30;5.90;;;;;;;;;;5052018;28;20021;-76
2022/04/18 14:11:18;;;;;;;4.60;3.00;;;;;;;;;;5052961;28;20091;-70
2022/04/18 14:13:44;;;;;;;5.70;3.50;;;;;;;;;;5053950;28;20124;-80
2022/04/18 14:21:44;;;;;;;5.20;3.20;;;;;;;;;;5053227;28;20036;-78
2022/04/18 14:24:10;;;;;;;7.38;2.90;;;;;;;;;;5051612;28;20470;-68
2022/04/18 14:26:36;;;;;;;5.35;2.90;;;;;;;;;;5054958;28;20025;-69
2022/04/18 14:29:03;;;;;;;5.88;2.75;;;;;;;;;;5056557;28;20040;-75
2022/04/18 14:31:30;;;;;;;7.43;3.35;;;;;;;;;;5062910;28;20071;-77
2022/04/18 14:33:56;;;;;;;4.95;2.95;;;;;;;;;;5054647;28;20025;-78
2022/04/18 14:36:22;;;;;;;6.80;3.20;;;;;;;;;;5055461;28;20014;-75
2022/04/18 14:38:48;;;;;;;6.10;3.22;;;;;;;;;;5058477;28;20513;-74
2022/04/18 14:41:14;;;;;;;9.82;4.00;;;;;;;;;;5053408;28;20090;-73
2022/04/18 14:43:40;;;;;;;9.90;3.95;;;;;;;;;;5052914;28;20551;-74
2022/04/18 14:46:06;;;;;;;7.70;3.70;;;;;;;;;;5056328;28;20029;-74
2022/04/18 14:48:32;;;;;;;9.73;4.35;;;;;;;;;;5053685;28;20048;-76
2022/04/18 14:50:59;;;;;;;6.85;3.35;;;;;;;;;;5054019;28;20064;-85
2022/04/18 14:53:25;;;;;;;4.28;3.00;;;;;;;;;;5048399;28;20025;-75
2022/04/18 14:55:51;;;;;;;8.55;3.15;;;;;;;;;;5063943;28;20027;-75
2022/04/18 14:58:17;;;;;;;3.92;2.92;;;;;;;;;;5052609;28;20577;-76
2022/04/18 15:00:44;;;;;;;5.60;3.28;;;;;;;;;;5067151;28;20465;-75
2022/04/18 15:03:10;;;;;;;6.43;3.10;;;;;;;;;;5062657;28;20041;-78
2022/04/18 15:05:36;;;;;;;32.00;16.17;;;;;;;;;;5060770;28;20029;-77
2022/04/18 15:08:03;;;;;;;6.03;3.80;;;;;;;;;;5062591;28;20029;-70
2022/04/18 15:10:29;;;;;;;7.95;4.05;;;;;;;;;;5059923;28;20033;-71
2022/04/18 15:12:55;;;;;;;10.82;3.80;;;;;;;;;;5053245;28;20013;-75
2022/04/18 15:15:22;;;;;;;8.82;4.10;;;;;;;;;;5054718;28;20025;-72
2022/04/18 15:17:49;;;;;;;8.88;4.03;;;;;;;;;;5054897;28;20044;-76
2022/04/18 15:20:15;;;;;;;7.25;4.40;;;;;;;;;;5054103;28;20501;-73